Time;durP1;ratioP1;P1;durP2;ratioP2;P2;SDS_P1;SDS_P2;PMS_P1;PMS_P2;Temp;Humidity;BMP_temperature;BMP_pressure;BME280_temperature;BME280_humidity;BME280_pressure;Samples;Min_cycle;Max_cycle;Signal;HPM_P1;HPM_P2
2022/04/03 00:01:25;;;;;;;6.50;3.17;;;2.50;67.10;;;;;;5005891;28;20393;-70
2022/04/03 00:03:50;;;;;;;6.70;3.10;;;2.60;66.70;;;;;;5018767;28;20036;-70
2022/04/03 00:06:16;;;;;;;4.40;2.90;;;2.60;66.80;;;;;;5007630;28;20027;-70
2022/04/03 00:08:41;;;;;;;5.40;3.10;;;2.60;66.80;;;;;;5007374;28;20406;-69
2022/04/03 00:11:08;;;;;;;7.13;3.70;;;2.60;67.10;;;;;;5004328;28;20333;-69
2022/04/03 00:13:34;;;;;;;6.68;3.30;;;2.60;66.90;;;;;;5007738;28;20022;-69
2022/04/03 00:15:59;;;;;;;6.63;3.35;;;2.60;66.90;;;;;;5006443;28;20040;-70
2022/04/03 00:18:25;;;;;;;8.55;3.70;;;2.60;67.00;;;;;;5008570;28;20034;-69
2022/04/03 00:20:51;;;;;;;7.00;4.28;;;2.60;66.90;;;;;;4999941;28;20585;-69
2022/04/03 00:23:16;;;;;;;7.05;4.20;;;2.60;66.90;;;;;;5009664;28;20121;-69
2022/04/03 00:25:42;;;;;;;7.95;4.43;;;2.50;67.00;;;;;;4995653;28;20137;-69
2022/04/03 00:28:07;;;;;;;9.43;4.22;;;2.60;67.10;;;;;;5005116;28;20042;-70
2022/04/03 00:30:34;;;;;;;5.82;4.35;;;2.60;67.10;;;;;;5011223;28;20026;-69
2022/04/03 00:32:59;;;;;;;9.05;4.40;;;2.60;67.30;;;;;;5005001;28;20045;-69
2022/04/03 00:35:25;;;;;;;6.68;4.20;;;2.60;67.20;;;;;;5011673;28;20041;-69
2022/04/03 00:37:51;;;;;;;7.35;3.50;;;2.60;67.20;;;;;;4995418;28;20034;-70
2022/04/03 00:40:17;;;;;;;8.18;4.03;;;2.70;67.30;;;;;;5002577;28;20030;-69
2022/04/03 00:42:43;;;;;;;5.78;3.00;;;2.60;67.50;;;;;;4994206;28;20557;-70
2022/04/03 00:45:09;;;;;;;6.45;3.30;;;2.60;67.50;;;;;;5000829;28;20117;-70
2022/04/03 00:47:35;;;;;;;5.88;4.07;;;2.70;67.70;;;;;;4998563;28;20074;-69
2022/04/03 00:50:01;;;;;;;7.68;3.55;;;2.60;67.70;;;;;;5000109;28;20049;-70
2022/04/03 00:52:27;;;;;;;5.97;3.22;;;2.60;67.70;;;;;;5000823;28;20570;-71
2022/04/03 00:54:53;;;;;;;5.13;3.22;;;2.60;67.60;;;;;;5003867;28;20199;-69
2022/04/03 00:57:22;;;;;;;5.32;2.97;;;2.60;67.70;;;;;;5008184;28;20117;-70
2022/04/03 00:59:49;;;;;;;7.38;3.50;;;2.60;67.80;;;;;;5011685;28;20442;-69
2022/04/03 01:02:15;;;;;;;6.65;3.47;;;2.70;67.80;;;;;;4999799;28;20098;-70
2022/04/03 01:04:40;;;;;;;7.63;3.50;;;2.70;67.80;;;;;;5001784;28;20038;-70
2022/04/03 01:07:06;;;;;;;11.50;4.70;;;2.70;67.80;;;;;;5000978;28;20163;-70
2022/04/03 01:09:32;;;;;;;8.07;4.70;;;2.70;67.90;;;;;;4999911;28;20117;-69
2022/04/03 01:11:57;;;;;;;6.03;3.72;;;2.70;67.80;;;;;;5003340;28;20125;-70
2022/04/03 01:14:38;;;;;;;9.45;3.58;;;2.70;67.80;;;;;;4994616;28;20486;-70
2022/04/03 01:17:05;;;;;;;8.50;3.95;;;2.70;68.00;;;;;;5022656;28;20060;-70
2022/04/03 01:19:31;;;;;;;9.80;4.78;;;2.80;67.90;;;;;;5006897;28;20030;-70
2022/04/03 01:21:58;;;;;;;10.00;4.78;;;2.80;67.90;;;;;;5009213;28;20586;-70
2022/04/03 01:24:24;;;;;;;6.57;3.58;;;2.70;67.90;;;;;;5010032;28;20106;-69
2022/04/03 01:26:50;;;;;;;7.60;4.30;;;2.60;68.20;;;;;;5007294;28;20041;-69
2022/04/03 01:29:17;;;;;;;7.38;4.00;;;2.60;68.60;;;;;;5006319;28;20030;-69
2022/04/03 01:31:43;;;;;;;5.38;3.58;;;2.50;68.90;;;;;;5007232;28;20034;-69
2022/04/03 01:34:09;;;;;;;6.47;3.50;;;2.50;68.50;;;;;;4992943;28;20521;-70
2022/04/03 01:36:34;;;;;;;6.75;3.08;;;2.50;68.40;;;;;;5006522;28;20165;-69
2022/04/03 01:39:00;;;;;;;5.40;3.00;;;2.50;68.50;;;;;;5009604;28;20431;-69
2022/04/03 01:41:25;;;;;;;6.70;3.47;;;2.50;68.60;;;;;;5004810;28;20018;-69
2022/04/03 01:43:51;;;;;;;8.05;3.75;;;2.40;68.40;;;;;;4994455;28;20084;-69
2022/04/03 01:46:16;;;;;;;5.88;3.15;;;2.50;68.60;;;;;;5001627;28;20514;-69
2022/04/03 01:48:42;;;;;;;4.80;2.92;;;2.50;69.00;;;;;;4999568;28;20041;-69
2022/04/03 01:51:07;;;;;;;6.10;3.58;;;2.50;68.60;;;;;;5010316;28;20448;-69
2022/04/03 01:53:33;;;;;;;5.80;3.38;;;2.50;68.60;;;;;;4992509;28;20039;-69
2022/04/03 01:55:59;;;;;;;6.28;2.90;;;2.60;68.50;;;;;;4997698;28;20041;-69
2022/04/03 01:58:25;;;;;;;5.28;2.95;;;2.50;68.50;;;;;;5010109;28;20030;-68
2022/04/03 02:00:50;;;;;;;6.13;3.03;;;2.60;68.50;;;;;;5008747;28;20470;-68
2022/04/03 02:03:16;;;;;;;5.28;2.50;;;2.60;68.60;;;;;;5009353;28;20036;-69
2022/04/03 02:05:41;;;;;;;6.90;2.80;;;2.60;68.50;;;;;;5000607;28;20038;-68
2022/04/03 02:08:07;;;;;;;4.82;3.10;;;2.70;68.50;;;;;;5007606;28;20513;-68
2022/04/03 02:10:32;;;;;;;4.93;2.70;;;2.80;68.60;;;;;;5004093;28;20021;-69
2022/04/03 02:12:59;;;;;;;5.43;3.05;;;2.80;68.50;;;;;;5008986;28;20061;-69
2022/04/03 02:15:24;;;;;;;7.68;3.15;;;2.80;68.50;;;;;;5008684;28;20022;-68
2022/04/03 02:17:50;;;;;;;4.90;2.83;;;2.90;68.50;;;;;;5005609;28;20033;-69
2022/04/03 02:20:15;;;;;;;8.73;2.92;;;2.90;68.50;;;;;;4990925;28;20027;-69
2022/04/03 02:22:41;;;;;;;7.20;2.55;;;3.00;68.40;;;;;;5009208;28;20083;-70
2022/04/03 02:25:09;;;;;;;4.85;2.63;;;3.00;68.30;;;;;;4994204;28;20023;-69
2022/04/03 02:27:36;;;;;;;5.25;2.60;;;3.00;68.20;;;;;;5002686;28;20038;-70
2022/04/03 02:30:03;;;;;;;5.13;2.75;;;3.10;68.20;;;;;;5007799;28;20454;-69
2022/04/03 02:32:28;;;;;;;5.40;3.00;;;3.10;68.10;;;;;;5003624;28;20398;-70
2022/04/03 02:34:54;;;;;;;6.68;2.72;;;3.20;68.00;;;;;;5011330;28;20519;-69
2022/04/03 02:37:19;;;;;;;5.18;2.90;;;3.20;67.90;;;;;;5006820;28;20128;-69
2022/04/03 02:39:45;;;;;;;4.72;2.53;;;3.20;67.80;;;;;;5007114;28;20382;-70
2022/04/03 02:42:11;;;;;;;4.30;2.65;;;3.30;67.80;;;;;;5003310;28;20037;-70
2022/04/03 02:44:36;;;;;;;4.60;2.78;;;3.30;67.70;;;;;;5008451;28;20022;-70
2022/04/03 02:47:02;;;;;;;8.45;3.13;;;3.40;67.50;;;;;;5008092;28;20037;-69
2022/04/03 02:49:27;;;;;;;4.93;2.80;;;3.40;67.40;;;;;;5002864;28;20026;-70
2022/04/03 02:51:53;;;;;;;4.88;2.75;;;3.40;67.40;;;;;;4998946;28;20030;-70
2022/04/03 02:54:18;;;;;;;4.53;2.75;;;3.50;67.40;;;;;;4994657;28;20049;-70
2022/04/03 02:56:44;;;;;;;4.18;2.72;;;3.60;67.30;;;;;;5006316;28;20076;-70
2022/04/03 02:59:09;;;;;;;5.65;2.63;;;3.60;67.30;;;;;;5004534;28;20085;-70
2022/04/03 03:01:35;;;;;;;5.05;3.08;;;3.70;67.20;;;;;;5004976;28;20030;-69
2022/04/03 03:04:00;;;;;;;6.93;3.28;;;3.70;67.10;;;;;;5004007;28;20014;-69
2022/04/03 03:06:26;;;;;;;4.07;2.08;;;3.80;67.00;;;;;;5013364;28;20030;-69
2022/04/03 03:08:51;;;;;;;4.20;2.55;;;3.80;66.90;;;;;;5003273;28;20484;-69
2022/04/03 03:11:17;;;;;;;5.80;2.85;;;3.90;66.90;;;;;;5012776;28;20030;-70
2022/04/03 03:13:42;;;;;;;4.85;3.33;;;3.90;66.80;;;;;;4996800;28;20056;-70
2022/04/03 03:16:08;;;;;;;5.65;2.90;;;3.90;66.80;;;;;;5004034;28;20351;-70
2022/04/03 03:18:34;;;;;;;5.53;2.92;;;4.00;66.80;;;;;;5023420;28;20090;-70
2022/04/03 03:20:59;;;;;;;6.15;2.92;;;4.00;66.70;;;;;;4999886;28;20022;-70
2022/04/03 03:23:25;;;;;;;6.40;2.70;;;4.10;66.60;;;;;;5009211;28;20053;-70
2022/04/03 03:25:50;;;;;;;4.07;2.50;;;4.10;66.50;;;;;;5021770;28;20065;-69
2022/04/03 03:28:15;;;;;;;4.63;2.28;;;4.10;66.30;;;;;;5008576;28;20440;-69
2022/04/03 03:30:41;;;;;;;4.82;2.90;;;4.20;66.30;;;;;;5008924;28;20018;-69
2022/04/03 03:33:06;;;;;;;3.38;2.42;;;4.20;66.30;;;;;;5007282;28;20025;-69
2022/04/03 03:35:33;;;;;;;6.65;2.88;;;4.20;66.30;;;;;;5009394;28;20022;-69
2022/04/03 03:37:59;;;;;;;5.88;2.47;;;4.20;66.20;;;;;;5005643;28;20118;-69
2022/04/03 03:40:25;;;;;;;5.65;2.60;;;4.20;66.20;;;;;;4994328;28;20080;-69
2022/04/03 03:42:50;;;;;;;5.30;2.85;;;4.30;66.30;;;;;;5005666;28;20116;-69
2022/04/03 03:45:16;;;;;;;5.97;3.13;;;4.20;66.20;;;;;;4997078;28;20031;-69
2022/04/03 03:47:46;;;;;;;6.65;3.35;;;4.20;66.30;;;;;;5012106;28;20030;-69
2022/04/03 03:50:12;;;;;;;7.63;3.50;;;4.20;66.20;;;;;;4994473;28;20039;-69
2022/04/03 03:52:37;;;;;;;6.22;2.95;;;4.30;66.20;;;;;;5012442;28;20505;-69
2022/04/03 03:55:03;;;;;;;9.90;3.58;;;4.30;66.10;;;;;;5012673;28;20022;-69
2022/04/03 03:57:28;;;;;;;5.78;3.08;;;4.30;66.00;;;;;;5008582;28;20100;-69
2022/04/03 03:59:54;;;;;;;5.82;3.10;;;4.30;65.90;;;;;;5013253;28;20092;-69
2022/04/03 04:02:20;;;;;;;5.65;3.10;;;4.30;65.90;;;;;;4997775;28;20022;-69
2022/04/03 04:04:45;;;;;;;4.95;2.95;;;4.30;65.90;;;;;;4996827;28;20021;-69
2022/04/03 04:07:10;;;;;;;4.32;2.67;;;4.40;65.80;;;;;;5009441;28;20085;-69
2022/04/03 04:09:36;;;;;;;5.05;2.50;;;4.50;65.70;;;;;;5011894;28;20018;-70
2022/04/03 04:12:03;;;;;;;4.50;2.70;;;4.40;65.30;;;;;;5008507;28;20045;-70
2022/04/03 04:14:29;;;;;;;4.18;2.40;;;4.40;65.30;;;;;;5001619;28;20030;-70
2022/04/03 04:16:54;;;;;;;3.25;2.33;;;4.40;65.10;;;;;;5009857;28;20045;-70
2022/04/03 04:19:20;;;;;;;4.60;2.30;;;4.40;64.80;;;;;;5009357;28;20374;-70
2022/04/03 04:21:45;;;;;;;2.83;2.03;;;4.40;64.90;;;;;;5009770;28;20092;-70
2022/04/03 04:24:11;;;;;;;4.55;2.30;;;4.30;64.70;;;;;;5011316;28;20084;-70
2022/04/03 04:26:36;;;;;;;3.22;2.28;;;4.30;64.60;;;;;;5006631;28;20034;-70
2022/04/03 04:29:02;;;;;;;4.18;2.30;;;4.30;64.50;;;;;;5012681;28;20080;-69
2022/04/03 04:31:28;;;;;;;5.40;2.65;;;4.30;64.40;;;;;;5008213;28;20113;-70
2022/04/03 04:33:53;;;;;;;4.93;2.50;;;4.30;64.50;;;;;;4995549;28;20101;-69
2022/04/03 04:36:19;;;;;;;5.05;2.40;;;4.30;64.50;;;;;;5003647;28;20832;-70
2022/04/03 04:38:44;;;;;;;4.28;2.40;;;4.30;64.40;;;;;;5007932;28;20114;-70
2022/04/03 04:41:10;;;;;;;7.90;3.00;;;4.30;64.40;;;;;;5010440;28;20599;-69
2022/04/03 04:43:35;;;;;;;5.43;2.90;;;4.40;64.40;;;;;;5000922;28;20116;-69
2022/04/03 04:46:01;;;;;;;4.75;2.80;;;4.40;64.30;;;;;;4993238;28;20034;-69
2022/04/03 04:48:27;;;;;;;4.15;2.92;;;4.40;64.20;;;;;;5001986;28;20088;-69
2022/04/03 04:50:52;;;;;;;5.40;3.58;;;4.40;64.70;;;;;;5012721;28;20525;-70
2022/04/03 04:53:18;;;;;;;5.75;3.42;;;4.50;64.20;;;;;;5008047;28;20104;-70
2022/04/03 04:55:43;;;;;;;4.88;2.90;;;4.40;64.10;;;;;;4999796;28;20382;-69
2022/04/03 04:58:09;;;;;;;4.47;3.03;;;4.40;64.00;;;;;;4994031;28;20127;-70
2022/04/03 05:00:35;;;;;;;5.15;3.53;;;4.40;64.00;;;;;;5003331;28;20117;-70
2022/04/03 05:03:00;;;;;;;7.90;3.33;;;4.40;63.80;;;;;;5005311;28;20072;-69
2022/04/03 05:05:27;;;;;;;5.75;3.20;;;4.40;63.60;;;;;;4996380;28;20492;-69
2022/04/03 05:07:58;;;;;;;5.03;2.60;;;4.40;63.60;;;;;;5009438;28;20057;-70
2022/04/03 05:10:25;;;;;;;5.30;2.72;;;4.40;63.60;;;;;;4993087;28;20374;-70
2022/04/03 05:12:53;;;;;;;5.82;3.72;;;4.40;63.60;;;;;;4994482;28;20034;-69
2022/04/03 05:15:19;;;;;;;5.22;2.92;;;4.40;63.60;;;;;;4997685;28;20034;-69
2022/04/03 05:17:45;;;;;;;4.72;2.95;;;4.40;63.50;;;;;;5010848;28;20053;-69
2022/04/03 05:20:12;;;;;;;4.43;2.75;;;4.40;63.50;;;;;;5011857;28;20064;-70
2022/04/03 05:22:39;;;;;;;4.97;2.90;;;4.40;63.50;;;;;;5003756;28;20022;-70
2022/04/03 05:25:05;;;;;;;6.40;2.70;;;4.40;63.20;;;;;;4994473;28;20576;-69
2022/04/03 05:27:32;;;;;;;7.15;2.42;;;4.40;63.30;;;;;;5004402;28;20034;-69
2022/04/03 05:29:57;;;;;;;4.45;2.70;;;4.40;63.20;;;;;;5011040;28;20045;-69
2022/04/03 05:32:28;;;;;;;3.60;2.45;;;4.40;63.10;;;;;;5003616;28;20029;-70
2022/04/03 05:34:56;;;;;;;6.85;2.67;;;4.40;62.80;;;;;;5000084;28;20022;-70
2022/04/03 05:37:21;;;;;;;4.53;2.90;;;4.30;62.80;;;;;;5008588;28;20038;-70
2022/04/03 05:39:48;;;;;;;5.15;2.58;;;4.40;62.80;;;;;;5011178;28;20033;-70
2022/04/03 05:42:13;;;;;;;6.30;2.40;;;4.40;62.80;;;;;;5010215;28;20516;-70
2022/04/03 05:44:39;;;;;;;5.13;2.83;;;4.40;62.60;;;;;;5010954;28;20108;-70
2022/04/03 05:47:05;;;;;;;4.28;2.53;;;4.40;62.70;;;;;;5004011;28;20065;-70
2022/04/03 05:49:30;;;;;;;5.03;2.63;;;4.40;62.60;;;;;;4996747;28;20474;-69
2022/04/03 05:51:56;;;;;;;3.70;2.20;;;4.40;62.50;;;;;;5004848;28;20029;-69
2022/04/03 05:54:21;;;;;;;5.13;2.13;;;4.40;62.40;;;;;;4994689;28;20129;-70
2022/04/03 05:56:47;;;;;;;5.55;2.30;;;4.40;62.50;;;;;;5009662;28;20026;-70
2022/04/03 05:59:13;;;;;;;6.30;2.42;;;4.50;62.60;;;;;;5010087;28;20018;-69
2022/04/03 06:01:38;;;;;;;4.03;2.30;;;4.50;62.60;;;;;;5006712;28;20022;-67
2022/04/03 06:04:04;;;;;;;4.82;2.42;;;4.50;62.60;;;;;;5010042;28;20109;-68
2022/04/03 06:06:29;;;;;;;4.40;2.67;;;4.60;62.70;;;;;;5001735;28;20041;-68
2022/04/03 06:08:55;;;;;;;4.18;2.88;;;4.60;62.60;;;;;;5005306;28;20486;-66
2022/04/03 06:11:20;;;;;;;9.32;3.15;;;4.70;62.70;;;;;;5001586;28;20030;-67
2022/04/03 06:13:45;;;;;;;5.00;2.72;;;4.70;62.70;;;;;;5003167;28;20513;-67
2022/04/03 06:16:11;;;;;;;4.70;2.70;;;4.80;62.70;;;;;;5004179;28;20045;-66
2022/04/03 06:18:36;;;;;;;5.55;2.78;;;4.80;62.80;;;;;;5006288;28;20517;-67
2022/04/03 06:21:02;;;;;;;5.50;3.17;;;4.90;62.90;;;;;;5001664;28;20169;-67
2022/04/03 06:23:27;;;;;;;4.32;2.45;;;5.00;62.30;;;;;;5019520;28;20053;-67
2022/04/03 06:25:55;;;;;;;4.40;3.13;;;5.00;63.10;;;;;;5001389;28;20073;-67
2022/04/03 06:28:21;;;;;;;5.35;2.75;;;5.00;62.50;;;;;;5004114;28;20403;-67
2022/04/03 06:30:47;;;;;;;4.35;2.80;;;5.10;62.60;;;;;;4998157;28;20121;-67
2022/04/03 06:33:13;;;;;;;7.07;2.83;;;5.10;62.50;;;;;;4994338;28;20034;-67
2022/04/03 06:35:39;;;;;;;7.07;3.63;;;5.20;62.30;;;;;;4994912;28;20022;-67
2022/04/03 06:38:05;;;;;;;9.10;3.05;;;5.20;62.40;;;;;;5006030;28;20038;-65
2022/04/03 06:40:34;;;;;;;7.75;3.22;;;5.30;62.40;;;;;;5010082;28;20022;-66
2022/04/03 06:43:00;;;;;;;4.97;3.28;;;5.20;62.20;;;;;;5003819;28;20386;-66
2022/04/03 06:45:26;;;;;;;4.03;2.58;;;5.30;62.20;;;;;;5010387;28;20029;-66
2022/04/03 06:47:52;;;;;;;6.53;3.17;;;5.20;61.80;;;;;;5001794;28;20041;-67
2022/04/03 06:50:19;;;;;;;4.20;2.65;;;5.20;61.90;;;;;;5007253;28;20022;-66
2022/04/03 06:52:45;;;;;;;5.32;2.60;;;5.20;61.90;;;;;;5006068;28;20383;-66
2022/04/03 06:55:10;;;;;;;5.68;2.50;;;5.20;62.30;;;;;;5007183;28;20106;-66
2022/04/03 06:57:37;;;;;;;7.30;4.03;;;5.20;62.40;;;;;;5007752;28;20038;-66
2022/04/03 07:00:05;;;;;;;5.22;2.70;;;5.30;62.50;;;;;;4995737;28;20109;-67
2022/04/03 07:02:31;;;;;;;4.05;2.50;;;5.30;62.40;;;;;;5003944;28;20026;-67
2022/04/03 07:04:57;;;;;;;4.45;2.70;;;5.30;62.20;;;;;;4999664;28;20022;-67
2022/04/03 07:07:24;;;;;;;6.28;2.65;;;5.40;61.90;;;;;;5000446;28;20478;-68
2022/04/03 07:09:50;;;;;;;3.92;2.45;;;5.40;61.80;;;;;;5002495;28;20671;-67
2022/04/03 07:12:16;;;;;;;5.40;2.35;;;5.50;61.70;;;;;;5007450;28;20044;-68
2022/04/03 07:14:41;;;;;;;5.28;2.70;;;5.50;61.00;;;;;;5006850;28;20440;-68
2022/04/03 07:17:07;;;;;;;3.85;2.28;;;5.50;61.20;;;;;;5025943;28;20030;-68
2022/04/03 07:19:33;;;;;;;4.22;2.42;;;5.60;61.20;;;;;;4994859;28;20489;-68
2022/04/03 07:21:59;;;;;;;6.18;2.97;;;5.70;61.00;;;;;;4989241;28;20030;-68
2022/04/03 07:24:25;;;;;;;5.85;2.53;;;5.70;59.70;;;;;;5005826;28;20401;-68
2022/04/03 07:26:51;;;;;;;4.35;2.15;;;5.80;60.30;;;;;;5011394;28;20129;-68
2022/04/03 07:29:17;;;;;;;4.40;2.05;;;5.90;60.50;;;;;;5003528;28;20025;-69
2022/04/03 07:31:42;;;;;;;5.32;2.58;;;6.10;60.10;;;;;;5010291;28;20030;-68
2022/04/03 07:34:08;;;;;;;6.75;2.85;;;6.10;59.20;;;;;;5009799;28;20087;-68
2022/04/03 07:36:33;;;;;;;3.20;2.10;;;6.20;59.60;;;;;;5010780;28;20058;-68
2022/04/03 07:38:59;;;;;;;5.15;2.08;;;6.30;59.40;;;;;;5010656;28;20168;-68
2022/04/03 07:41:24;;;;;;;4.25;2.05;;;6.40;59.30;;;;;;4994173;28;20588;-68
2022/04/03 07:43:50;;;;;;;2.67;2.00;;;6.40;59.20;;;;;;4999594;28;20023;-68
2022/04/03 07:46:18;;;;;;;5.28;2.35;;;6.60;59.00;;;;;;5009094;28;20099;-68
2022/04/03 07:48:45;;;;;;;6.28;2.40;;;6.60;59.00;;;;;;5005333;28;20049;-68
2022/04/03 07:51:11;;;;;;;5.13;2.50;;;6.70;58.80;;;;;;5004657;28;20269;-68
2022/04/03 07:53:38;;;;;;;6.22;2.60;;;6.70;58.50;;;;;;4999718;28;20038;-68
2022/04/03 07:56:05;;;;;;;5.00;2.50;;;6.80;58.60;;;;;;5002780;28;20049;-68
2022/04/03 07:58:31;;;;;;;4.25;2.30;;;6.80;57.50;;;;;;5008786;28;20033;-68
2022/04/03 08:00:57;;;;;;;4.57;2.90;;;6.80;58.20;;;;;;5011912;28;20034;-68
2022/04/03 08:03:22;;;;;;;5.25;2.35;;;6.80;58.20;;;;;;4996298;28;20026;-68
2022/04/03 08:05:48;;;;;;;3.95;2.50;;;6.90;57.60;;;;;;4998766;28;20027;-68
2022/04/03 08:08:13;;;;;;;3.70;2.13;;;6.90;57.30;;;;;;5006916;28;20049;-68
2022/04/03 08:10:39;;;;;;;6.72;2.92;;;6.80;57.70;;;;;;5008963;28;20393;-67
2022/04/03 08:13:05;;;;;;;3.47;2.22;;;6.90;57.60;;;;;;5010762;28;20022;-68
2022/04/03 08:15:30;;;;;;;3.40;2.30;;;6.90;57.70;;;;;;5015176;28;20384;-67
2022/04/03 08:17:56;;;;;;;4.53;2.55;;;6.80;57.70;;;;;;5010789;28;20021;-68
2022/04/03 08:20:21;;;;;;;4.20;2.50;;;6.80;58.20;;;;;;4995754;28;20046;-69
2022/04/03 08:22:48;;;;;;;3.70;2.13;;;6.90;58.30;;;;;;5002897;28;20481;-68
2022/04/03 08:25:15;;;;;;;9.13;3.00;;;6.90;58.20;;;;;;5007661;28;20029;-68
2022/04/03 08:27:51;;;;;;;3.85;2.03;;;7.10;58.90;;;;;;5008060;28;20037;-68
2022/04/03 08:30:25;;;;;;;4.05;1.80;;;7.10;58.10;;;;;;5010360;28;20026;-68
2022/04/03 08:32:52;;;;;;;5.30;2.10;;;7.20;58.70;;;;;;5002603;28;20047;-68
2022/04/03 08:35:19;;;;;;;3.25;1.80;;;7.30;58.90;;;;;;5001775;28;20034;-68
2022/04/03 08:37:45;;;;;;;3.60;1.88;;;7.40;58.60;;;;;;5003355;28;20029;-66
2022/04/03 08:40:12;;;;;;;2.35;1.58;;;7.50;58.40;;;;;;5003696;28;20034;-67
2022/04/03 08:42:39;;;;;;;5.13;1.83;;;7.60;58.00;;;;;;5000947;28;20018;-68
2022/04/03 08:45:11;;;;;;;3.60;2.08;;;7.60;57.50;;;;;;5001347;28;20469;-67
2022/04/03 08:47:42;;;;;;;2.58;1.70;;;7.60;57.30;;;;;;5007939;28;20081;-67
2022/04/03 08:50:08;;;;;;;2.92;1.73;;;7.70;57.00;;;;;;5012110;28;20030;-67
2022/04/03 08:52:36;;;;;;;3.72;1.90;;;7.60;56.60;;;;;;5001575;28;20118;-68
2022/04/03 08:55:04;;;;;;;3.13;1.92;;;7.70;56.60;;;;;;5006849;28;20049;-68
2022/04/03 08:57:29;;;;;;;2.75;1.90;;;7.70;56.50;;;;;;5003508;28;20123;-69
2022/04/03 08:59:56;;;;;;;3.28;1.80;;;7.70;56.30;;;;;;5006160;28;20068;-69
2022/04/03 09:02:21;;;;;;;3.65;1.75;;;7.80;56.10;;;;;;5028976;28;20025;-69
2022/04/03 09:04:47;;;;;;;4.00;1.80;;;7.90;55.90;;;;;;5009171;28;20471;-68
2022/04/03 09:07:19;;;;;;;4.57;1.85;;;8.00;55.40;;;;;;5009026;28;20056;-69
2022/04/03 09:09:55;;;;;;;3.58;2.40;;;8.10;55.40;;;;;;5008003;28;20036;-69
2022/04/03 09:12:20;;;;;;;3.90;1.92;;;8.10;54.60;;;;;;4998362;28;20061;-68
2022/04/03 09:14:55;;;;;;;4.78;1.80;;;8.20;54.70;;;;;;5008298;28;20038;-69
2022/04/03 09:17:37;;;;;;;3.83;1.85;;;8.30;53.00;;;;;;4993200;28;20026;-68
2022/04/03 09:20:08;;;;;;;5.32;1.83;;;8.30;53.40;;;;;;4992661;28;20080;-68
2022/04/03 09:22:35;;;;;;;4.10;2.10;;;8.30;53.40;;;;;;5019108;28;20033;-69
2022/04/03 09:25:05;;;;;;;2.80;1.80;;;8.40;52.00;;;;;;5015726;28;20176;-68
2022/04/03 09:27:55;;;;;;;5.40;2.00;;;8.40;52.00;;;;;;5004050;28;20037;-69
2022/04/03 09:30:34;;;;;;;4.85;1.67;;;8.40;51.60;;;;;;5008424;28;20041;-69
2022/04/03 09:33:01;;;;;;;2.47;1.58;;;8.40;51.60;;;;;;5011098;28;20049;-69
2022/04/03 09:35:29;;;;;;;3.90;2.42;;;8.40;49.50;;;;;;5008134;28;20030;-69
2022/04/03 09:38:12;;;;;;;4.25;1.90;;;8.20;49.60;;;;;;4992412;28;20057;-68
2022/04/03 09:40:44;;;;;;;4.13;2.10;;;8.30;50.40;;;;;;4996055;28;20026;-68
2022/04/03 09:43:24;;;;;;;4.07;1.90;;;8.30;50.50;;;;;;5010054;28;20117;-68
2022/04/03 09:45:54;;;;;;;5.43;2.08;;;8.50;50.60;;;;;;5008937;28;20034;-68
2022/04/03 09:48:31;;;;;;;3.15;2.03;;;8.50;50.40;;;;;;5007838;28;20095;-68
2022/04/03 09:51:05;;;;;;;5.95;1.80;;;8.50;49.20;;;;;;5007004;28;20026;-68
2022/04/03 09:53:56;;;;;;;3.63;2.28;;;8.40;49.10;;;;;;4996974;28;20041;-68
2022/04/03 09:56:22;;;;;;;7.45;2.10;;;8.40;49.30;;;;;;4998993;28;20118;-69
2022/04/03 09:58:50;;;;;;;8.77;2.40;;;8.30;49.80;;;;;;5010012;28;20022;-68
2022/04/03 10:01:38;;;;;;;4.38;2.20;;;8.40;50.00;;;;;;5008649;28;20499;-68
2022/04/03 10:04:09;;;;;;;5.47;2.70;;;8.50;49.60;;;;;;5000996;28;20505;-68
2022/04/03 10:06:35;;;;;;;4.50;2.10;;;8.60;50.40;;;;;;4993633;28;20042;-68
2022/04/03 10:09:02;;;;;;;6.55;2.00;;;8.70;50.20;;;;;;5005327;28;20050;-69
2022/04/03 10:11:29;;;;;;;4.90;2.00;;;8.80;50.20;;;;;;5005093;28;20017;-69
2022/04/03 10:13:55;;;;;;;4.38;2.53;;;8.90;49.20;;;;;;4999197;28;20456;-68
2022/04/03 10:16:22;;;;;;;5.10;1.95;;;9.00;49.30;;;;;;5001131;28;20025;-68
2022/04/03 10:18:48;;;;;;;3.25;2.08;;;9.10;49.00;;;;;;4998165;28;20034;-68
2022/04/03 10:21:39;;;;;;;3.10;1.77;;;9.10;48.20;;;;;;5003318;28;20030;-69
2022/04/03 10:24:17;;;;;;;3.92;2.00;;;9.20;48.40;;;;;;5007867;28;20466;-68
2022/04/03 10:26:56;;;;;;;5.70;2.25;;;9.30;48.70;;;;;;4997541;28;20045;-69
2022/04/03 10:29:22;;;;;;;2.78;1.90;;;9.40;47.30;;;;;;4998461;28;20417;-69
2022/04/03 10:31:56;;;;;;;5.18;2.15;;;9.40;47.20;;;;;;4995485;28;20040;-68
2022/04/03 10:34:22;;;;;;;2.58;1.90;;;9.40;46.50;;;;;;5004204;28;20430;-68
2022/04/03 10:36:53;;;;;;;4.93;1.90;;;9.40;47.00;;;;;;5000211;28;20026;-69
2022/04/03 10:39:27;;;;;;;3.42;2.10;;;9.40;47.00;;;;;;5004829;28;20029;-69
2022/04/03 10:42:16;;;;;;;6.90;2.47;;;9.40;47.20;;;;;;5016004;28;20034;-68
2022/04/03 10:44:42;;;;;;;4.43;1.70;;;9.50;47.50;;;;;;4999107;28;20549;-68
2022/04/03 10:47:18;;;;;;;6.30;2.25;;;9.50;47.00;;;;;;5005079;28;20485;-69
2022/04/03 10:50:00;;;;;;;3.05;2.30;;;9.50;45.60;;;;;;5006723;28;20490;-69
2022/04/03 10:52:35;;;;;;;4.95;1.80;;;9.50;46.50;;;;;;5005233;28;20037;-69
2022/04/03 10:55:02;;;;;;;4.75;2.10;;;9.40;46.00;;;;;;5008308;28;20489;-69
2022/04/03 10:57:40;;;;;;;3.30;1.85;;;9.50;46.20;;;;;;5006924;28;20038;-68
2022/04/03 11:00:14;;;;;;;5.57;1.98;;;9.50;45.70;;;;;;5009278;28;20513;-69
2022/04/03 11:03:03;;;;;;;4.10;1.80;;;9.50;46.00;;;;;;5010361;28;20033;-69
2022/04/03 11:05:29;;;;;;;4.95;2.03;;;9.50;45.30;;;;;;5001161;28;20532;-69
2022/04/03 11:08:00;;;;;;;4.78;3.28;;;9.60;45.70;;;;;;5006065;28;20132;-69
2022/04/03 11:10:45;;;;;;;4.22;1.73;;;9.60;45.00;;;;;;5009545;28;20033;-69
2022/04/03 11:13:13;;;;;;;8.73;3.03;;;9.70;45.40;;;;;;5009281;28;20054;-69
2022/04/03 11:16:02;;;;;;;3.92;2.22;;;9.80;45.50;;;;;;5015131;28;20040;-68
2022/04/03 11:18:33;;;;;;;4.38;1.90;;;10.00;44.60;;;;;;4996872;28;20041;-69
2022/04/03 11:21:10;;;;;;;5.93;2.00;;;10.00;45.00;;;;;;5005133;28;20026;-69
2022/04/03 11:23:38;;;;;;;7.07;2.13;;;10.10;45.00;;;;;;5007536;28;20033;-69
2022/04/03 11:26:04;;;;;;;3.38;1.90;;;10.20;44.90;;;;;;4997602;28;20030;-69
2022/04/03 11:28:32;;;;;;;6.95;2.20;;;10.20;45.40;;;;;;5002650;28;20080;-69
2022/04/03 11:30:59;;;;;;;4.70;1.98;;;10.20;44.50;;;;;;5013104;28;20018;-69
2022/04/03 11:33:25;;;;;;;3.90;2.05;;;10.20;44.50;;;;;;5005960;28;20083;-69
2022/04/03 11:35:50;;;;;;;6.32;2.10;;;10.40;44.60;;;;;;5006332;28;20026;-69
2022/04/03 11:38:17;;;;;;;4.50;1.88;;;10.40;43.90;;;;;;5006979;28;20128;-69
2022/04/03 11:40:43;;;;;;;3.88;2.05;;;10.40;44.10;;;;;;5004161;28;20465;-70
2022/04/03 11:43:17;;;;;;;3.10;1.90;;;10.50;44.00;;;;;;5000106;28;20026;-69
2022/04/03 11:46:00;;;;;;;5.28;2.05;;;10.60;44.20;;;;;;5010466;28;20038;-69
2022/04/03 11:48:31;;;;;;;2.97;2.00;;;10.70;44.20;;;;;;5010274;28;20069;-69
2022/04/03 11:51:08;;;;;;;3.88;2.08;;;10.70;43.80;;;;;;5011514;28;20033;-69
2022/04/03 11:53:34;;;;;;;6.47;2.47;;;10.70;43.60;;;;;;5009560;28;20068;-69
2022/04/03 11:56:05;;;;;;;5.35;2.42;;;10.70;44.30;;;;;;5000449;28;20057;-69
2022/04/03 11:58:32;;;;;;;3.72;2.30;;;10.70;43.80;;;;;;5004070;28;20116;-70
2022/04/03 12:00:58;;;;;;;5.72;2.40;;;10.70;44.10;;;;;;5007109;28;20026;-70
2022/04/03 12:03:28;;;;;;;6.25;2.15;;;10.70;43.70;;;;;;4997604;28;20081;-70
2022/04/03 12:06:14;;;;;;;4.00;2.55;;;10.70;43.70;;;;;;4992828;28;20146;-70
2022/04/03 12:08:40;;;;;;;3.90;2.28;;;10.60;43.70;;;;;;5005018;28;20545;-69
2022/04/03 12:11:16;;;;;;;4.25;2.70;;;10.60;44.10;;;;;;4999900;28;20037;-70
2022/04/03 12:13:42;;;;;;;5.15;2.22;;;10.60;43.20;;;;;;4997663;28;20034;-69
2022/04/03 12:16:08;;;;;;;4.20;2.30;;;10.60;43.70;;;;;;5009400;28;20057;-69
2022/04/03 12:18:49;;;;;;;7.38;2.20;;;10.70;43.00;;;;;;5010533;28;20034;-69
2022/04/03 12:21:15;;;;;;;4.22;2.45;;;10.70;43.50;;;;;;5004862;28;20037;-69
2022/04/03 12:24:09;;;;;;;3.88;2.28;;;10.70;43.90;;;;;;5010574;28;20018;-68
2022/04/03 12:26:36;;;;;;;4.78;2.20;;;10.80;43.70;;;;;;5005363;28;20034;-69
2022/04/03 12:29:06;;;;;;;6.05;2.38;;;10.80;43.80;;;;;;5011761;28;20037;-69
2022/04/03 12:31:33;;;;;;;4.68;2.20;;;10.80;44.00;;;;;;4999983;28;20558;-70
2022/04/03 12:34:06;;;;;;;2.92;1.98;;;10.70;43.60;;;;;;5011325;28;20083;-70
2022/04/03 12:36:42;;;;;;;6.95;2.13;;;10.60;43.70;;;;;;5002348;28;20030;-70
2022/04/03 12:39:32;;;;;;;3.83;2.20;;;10.60;44.10;;;;;;4995224;28;20061;-70
2022/04/03 12:42:22;;;;;;;3.13;1.80;;;10.60;44.10;;;;;;4998248;28;20038;-71
2022/04/03 12:44:51;;;;;;;3.38;1.90;;;10.70;43.80;;;;;;5001072;28;20030;-71
2022/04/03 12:47:30;;;;;;;4.13;1.83;;;10.70;43.80;;;;;;5005908;28;20045;-70
2022/04/03 12:50:11;;;;;;;4.93;1.75;;;10.70;43.70;;;;;;5007557;28;20105;-72
2022/04/03 12:52:43;;;;;;;5.25;2.85;;;10.80;44.30;;;;;;4999980;28;20040;-71
2022/04/03 12:55:32;;;;;;;5.05;2.38;;;10.80;43.90;;;;;;5015031;28;20030;-70
2022/04/03 13:00:55;;;;;;;3.03;1.88;;;11.00;43.90;;;;;;5007813;28;20030;-71
2022/04/03 13:03:34;;;;;;;4.88;1.88;;;11.10;43.90;;;;;;4994516;28;20045;-71